createdAt,value
2022-09-10T00:02:14.217Z,13.35
2022-09-10T00:04:44.198Z,15.70
2022-09-10T00:07:14.238Z,14.90
2022-09-10T00:09:44.653Z,14.50
2022-09-10T00:12:16.170Z,14.02
2022-09-10T00:14:46.744Z,14.18
2022-09-10T00:17:16.616Z,14.07
2022-09-10T00:19:48.353Z,14.02
2022-09-10T00:24:48.719Z,12.88
2022-09-10T00:27:18.725Z,12.80
2022-09-10T00:29:48.715Z,12.13
2022-09-10T00:32:18.653Z,13.68
2022-09-10T00:34:49.742Z,13.38
2022-09-10T00:37:20.428Z,12.68
2022-09-10T00:39:50.946Z,12.52
2022-09-10T00:42:21.186Z,11.77
2022-09-10T00:45:00.820Z,12.48
2022-09-10T00:47:37.542Z,12.27
2022-09-10T00:50:35.902Z,11.95
2022-09-10T00:53:14.024Z,10.88
2022-09-10T00:55:48.155Z,11.93
2022-09-10T00:58:22.110Z,11.25
2022-09-10T01:00:56.492Z,10.00
2022-09-10T01:03:27.100Z,10.55
2022-09-10T01:05:59.382Z,10.48
2022-09-10T01:08:30.167Z,8.05
2022-09-10T01:11:21.791Z,10.68
2022-09-10T01:14:14.043Z,10.15
2022-09-10T01:16:50.510Z,10.07
2022-09-10T01:19:57.900Z,9.52
2022-09-10T01:22:34.163Z,9.55
2022-09-10T01:25:07.253Z,9.30
2022-09-10T01:27:40.530Z,8.38
2022-09-10T01:30:15.986Z,8.15
2022-09-10T01:32:58.116Z,5.88
2022-09-10T01:35:43.549Z,6.32
2022-09-10T01:38:22.473Z,4.57
2022-09-10T01:40:57.281Z,4.65
2022-09-10T01:43:31.412Z,3.80
2022-09-10T01:46:26.843Z,4.60
2022-09-10T01:49:05.703Z,3.70
2022-09-10T01:52:04.253Z,3.90
2022-09-10T01:54:38.734Z,3.15
2022-09-10T01:57:21.750Z,2.72
2022-09-10T02:00:03.116Z,3.42
2022-09-10T02:02:54.001Z,3.40
2022-09-10T02:05:25.648Z,3.00
2022-09-10T02:08:06.676Z,3.63
2022-09-10T02:10:48.682Z,3.55
2022-09-10T02:13:19.306Z,2.65
2022-09-10T02:16:14.184Z,3.03
2022-09-10T02:18:47.095Z,3.15
2022-09-10T02:21:17.961Z,3.10
2022-09-10T02:23:55.238Z,3.20
2022-09-10T02:26:28.023Z,2.83
2022-09-10T02:28:59.244Z,2.75
2022-09-10T02:31:29.939Z,2.85
2022-09-10T02:34:00.516Z,2.03
2022-09-10T02:36:33.081Z,2.65
2022-09-10T02:39:05.541Z,1.92
2022-09-10T02:41:36.485Z,2.00
2022-09-10T02:44:06.906Z,2.33
2022-09-10T02:46:37.146Z,2.85
2022-09-10T02:49:07.769Z,2.35
2022-09-10T02:51:41.547Z,1.75
2022-09-10T02:54:11.783Z,2.38
2022-09-10T02:56:41.623Z,1.92
2022-09-10T02:59:11.619Z,2.03
2022-09-10T03:01:41.958Z,2.08
2022-09-10T03:04:12.224Z,1.60
2022-09-10T03:06:42.474Z,1.75
2022-09-10T03:09:12.615Z,1.48
2022-09-10T03:11:43.015Z,1.70
2022-09-10T03:14:15.233Z,1.45
2022-09-10T03:16:48.496Z,1.45
2022-09-10T03:19:19.187Z,1.60
2022-09-10T03:21:49.314Z,1.55
2022-09-10T03:24:19.386Z,1.48
2022-09-10T03:26:49.385Z,1.08
2022-09-10T03:29:19.410Z,1.23
2022-09-10T03:31:49.682Z,0.80
2022-09-10T03:34:20.382Z,1.10
2022-09-10T03:36:51.091Z,1.35
2022-09-10T03:39:22.307Z,0.90
2022-09-10T03:41:54.827Z,0.50
2022-09-10T03:44:25.103Z,0.57
2022-09-10T03:46:54.940Z,0.80
2022-09-10T03:49:24.946Z,0.63
2022-09-10T03:51:55.688Z,0.60
2022-09-10T03:54:26.943Z,1.00
2022-09-10T03:56:56.991Z,0.73
2022-09-10T03:59:27.723Z,0.70
2022-09-10T04:02:01.710Z,0.60
2022-09-10T04:04:33.214Z,0.55
2022-09-10T04:07:03.302Z,0.30
2022-09-10T04:09:35.248Z,0.40
2022-09-10T04:12:06.324Z,0.50
2022-09-10T04:14:37.986Z,0.30
2022-09-10T04:17:08.311Z,0.22
2022-09-10T04:19:39.395Z,0.30
2022-09-10T04:22:09.733Z,0.32
2022-09-10T04:24:41.369Z,0.30
2022-09-10T04:27:11.557Z,0.40
2022-09-10T04:29:44.258Z,0.50
2022-09-10T04:32:15.987Z,0.20
2022-09-10T04:34:47.091Z,0.30
2022-09-10T04:37:19.298Z,0.10
2022-09-10T04:39:50.531Z,0.10
2022-09-10T04:42:21.686Z,0.20
2022-09-10T04:44:53.746Z,0.15
2022-09-10T04:47:25.475Z,0.20
2022-09-10T04:49:55.987Z,0.40
2022-09-10T04:52:26.694Z,0.20
2022-09-10T04:54:57.540Z,0.40
2022-09-10T04:57:30.238Z,0.50
2022-09-10T05:00:00.481Z,0.20
2022-09-10T05:02:30.530Z,0.20
2022-09-10T05:05:01.081Z,0.20
2022-09-10T05:07:32.134Z,0.20
2022-09-10T05:10:04.310Z,0.20
2022-09-10T05:12:34.399Z,0.20
2022-09-10T05:15:05.905Z,0.10
2022-09-10T05:17:36.744Z,0.55
2022-09-10T05:20:08.893Z,0.20
2022-09-10T05:22:44.093Z,0.20
2022-09-10T05:25:15.796Z,0.20
2022-09-10T05:27:46.117Z,0.13
2022-09-10T05:30:21.128Z,0.10
2022-09-10T05:32:54.431Z,0.17
2022-09-10T05:35:25.234Z,0.17
2022-09-10T05:37:58.674Z,0.10
2022-09-10T05:40:30.364Z,0.20
2022-09-10T05:43:01.565Z,0.15
2022-09-10T05:45:32.497Z,0.13
2022-09-10T05:48:05.626Z,0.20
2022-09-10T05:50:35.719Z,0.20
2022-09-10T05:53:06.560Z,0.35
2022-09-10T05:55:36.799Z,0.50
2022-09-10T05:58:09.293Z,0.85
2022-09-10T06:00:44.595Z,0.40
2022-09-10T06:03:16.101Z,0.50
2022-09-10T06:05:54.233Z,0.50
2022-09-10T06:08:28.177Z,0.70
2022-09-10T06:11:07.086Z,0.50
2022-09-10T06:13:45.144Z,0.50
2022-09-10T06:16:16.509Z,0.60
2022-09-10T06:18:47.846Z,0.50
2022-09-10T06:21:24.975Z,0.55
2022-09-10T06:23:58.889Z,0.40
2022-09-10T06:26:32.278Z,0.75
2022-09-10T06:29:07.573Z,0.35
2022-09-10T06:31:38.246Z,0.25
2022-09-10T06:34:09.320Z,0.60
2022-09-10T06:36:40.410Z,0.50
2022-09-10T06:39:11.296Z,0.35
2022-09-10T06:41:54.858Z,0.40
2022-09-10T06:44:43.059Z,0.60
2022-09-10T06:48:25.374Z,0.60
2022-09-10T06:50:37.037Z,0.52
2022-09-10T06:53:07.480Z,0.98
2022-09-10T06:55:37.549Z,0.52
2022-09-10T06:58:08.470Z,0.50
2022-09-10T07:03:11.699Z,0.90
2022-09-10T07:05:42.322Z,1.00
2022-09-10T07:08:17.144Z,0.93
2022-09-10T07:10:53.024Z,1.08
2022-09-10T07:13:24.388Z,0.80
2022-09-10T07:15:54.804Z,1.17
2022-09-10T07:18:25.796Z,1.08
2022-09-10T07:20:56.283Z,1.80
2022-09-10T07:23:26.213Z,0.90
2022-09-10T07:25:56.256Z,1.20
2022-09-10T07:28:43.580Z,0.82
2022-09-10T07:31:24.875Z,0.77
2022-09-10T07:33:56.531Z,0.93
2022-09-10T07:36:27.259Z,1.00
2022-09-10T07:39:02.718Z,1.23
2022-09-10T07:41:36.604Z,0.80
2022-09-10T07:44:10.436Z,0.60
2022-09-10T07:46:45.131Z,0.90
2022-09-10T07:49:17.836Z,0.70
2022-09-10T07:51:59.674Z,1.02
2022-09-10T07:54:40.088Z,0.60
2022-09-10T07:57:10.638Z,0.60
2022-09-10T07:59:40.524Z,0.63
2022-09-10T08:02:16.565Z,1.00
2022-09-10T08:04:55.642Z,0.63
2022-09-10T08:07:26.107Z,1.10
2022-09-10T08:09:56.363Z,0.63
2022-09-10T08:12:27.618Z,0.88
2022-09-10T08:14:58.998Z,0.70
2022-09-10T08:17:33.367Z,1.10
2022-09-10T08:20:06.004Z,0.55
2022-09-10T08:22:37.377Z,0.38
2022-09-10T08:25:08.700Z,0.68
2022-09-10T08:27:40.155Z,0.52
2022-09-10T08:30:11.678Z,0.65
2022-09-10T08:32:42.236Z,0.60
2022-09-10T08:35:13.127Z,0.73
2022-09-10T08:37:44.948Z,0.63
2022-09-10T08:40:17.756Z,0.60
2022-09-10T08:42:51.483Z,0.85
2022-09-10T08:45:34.012Z,0.68
2022-09-10T08:48:25.036Z,0.63
2022-09-10T08:51:11.896Z,0.60
2022-09-10T08:56:21.542Z,0.52
2022-09-10T08:59:00.270Z,0.70
2022-09-10T09:01:41.663Z,0.43
2022-09-10T09:04:43.702Z,0.60
2022-09-10T09:07:18.176Z,0.45
2022-09-10T09:09:53.237Z,0.50
2022-09-10T09:12:35.634Z,0.77
2022-09-10T09:15:28.530Z,0.60
2022-09-10T09:18:32.178Z,0.73
2022-09-10T09:21:14.617Z,0.60
2022-09-10T09:24:12.602Z,0.40
2022-09-10T09:26:51.444Z,0.32
2022-09-10T09:29:44.869Z,0.70
2022-09-10T09:32:19.602Z,0.55
2022-09-10T09:35:11.563Z,0.70
2022-09-10T09:37:49.410Z,0.90
2022-09-10T09:40:44.694Z,0.82
2022-09-10T09:43:58.198Z,0.60
2022-09-10T09:46:29.668Z,0.80
2022-09-10T09:49:04.286Z,1.25
2022-09-10T09:51:37.992Z,1.30
2022-09-10T09:57:18.235Z,1.08
2022-09-10T09:59:50.429Z,0.88
2022-09-10T10:02:31.575Z,0.98
2022-09-10T10:05:08.549Z,1.00
2022-09-10T10:07:39.235Z,1.02
2022-09-10T10:10:22.457Z,1.10
2022-09-10T10:12:54.896Z,1.20
2022-09-10T10:15:43.039Z,1.25
2022-09-10T10:18:33.649Z,0.95
2022-09-10T10:21:32.691Z,1.15
2022-09-10T10:24:03.283Z,0.95
2022-09-10T10:26:35.978Z,1.33
2022-09-10T10:29:20.078Z,1.13
2022-09-10T10:31:52.591Z,1.98
2022-09-10T10:34:55.089Z,1.38
2022-09-10T10:37:43.726Z,1.30
2022-09-10T10:40:28.256Z,1.35
2022-09-10T10:43:16.388Z,2.28
2022-09-10T10:45:55.562Z,13.40
2022-09-10T10:51:16.269Z,1.23
2022-09-10T10:53:49.961Z,0.88
2022-09-10T10:56:43.982Z,1.45
2022-09-10T10:59:32.430Z,1.30
2022-09-10T11:02:23.960Z,1.10
2022-09-10T11:04:56.905Z,1.58
2022-09-10T11:07:41.347Z,0.98
2022-09-10T11:10:20.885Z,1.42
2022-09-10T11:13:07.262Z,1.20
2022-09-10T11:15:42.731Z,1.27
2022-09-10T11:18:35.191Z,1.38
2022-09-10T11:21:09.817Z,1.27
2022-09-10T11:24:02.611Z,1.50
2022-09-10T11:26:41.468Z,0.80
2022-09-10T11:29:26.582Z,1.45
2022-09-10T11:31:56.578Z,1.33
2022-09-10T11:34:59.083Z,1.60
2022-09-10T11:37:49.913Z,2.00
2022-09-10T11:40:34.439Z,1.55
2022-09-10T11:43:16.195Z,1.27
2022-09-10T11:45:54.474Z,0.90
2022-09-10T11:48:33.409Z,1.35
2022-09-10T11:51:09.891Z,1.92
2022-09-10T11:53:40.125Z,2.10
2022-09-10T11:56:15.337Z,1.90
2022-09-10T11:59:12.847Z,2.90
2022-09-10T12:01:50.461Z,1.55
2022-09-10T12:04:43.673Z,1.77
2022-09-10T12:07:38.008Z,1.20
2022-09-10T12:10:38.218Z,1.52
2022-09-10T12:13:16.389Z,1.65
2022-09-10T12:16:01.363Z,1.88
2022-09-10T12:18:43.006Z,1.67
2022-09-10T12:21:43.069Z,1.23
2022-09-10T12:24:37.338Z,1.58
2022-09-10T12:27:08.992Z,1.20
2022-09-10T12:29:43.784Z,1.58
2022-09-10T12:32:23.542Z,1.30
2022-09-10T12:35:33.395Z,1.17
2022-09-10T12:38:43.353Z,1.02
2022-09-10T12:41:34.597Z,0.90
2022-09-10T12:44:26.148Z,0.93
2022-09-10T12:49:54.474Z,1.33
2022-09-10T12:52:54.607Z,1.45
2022-09-10T12:55:52.073Z,1.20
2022-09-10T12:58:34.976Z,0.95
2022-09-10T13:01:37.073Z,2.67
2022-09-10T13:04:17.587Z,1.40
2022-09-10T13:06:51.220Z,0.95
2022-09-10T13:09:41.498Z,0.75
2022-09-10T13:12:25.111Z,1.10
2022-09-10T13:14:59.199Z,0.68
2022-09-10T13:18:01.134Z,1.38
2022-09-10T13:20:34.062Z,1.00
2022-09-10T13:23:10.742Z,1.02
2022-09-10T13:25:44.214Z,1.00
2022-09-10T13:28:34.048Z,1.20
2022-09-10T13:31:19.568Z,1.30
2022-09-10T13:33:55.688Z,1.42
2022-09-10T13:36:34.480Z,1.15
2022-09-10T13:39:41.152Z,1.10
2022-09-10T13:42:26.158Z,0.90
2022-09-10T13:45:14.986Z,0.98
2022-09-10T13:48:04.454Z,1.40
2022-09-10T13:50:47.186Z,1.08
2022-09-10T13:53:19.830Z,0.90
2022-09-10T13:55:59.965Z,0.98
2022-09-10T13:58:36.532Z,0.93
2022-09-10T14:01:07.352Z,0.80
2022-09-10T14:03:40.153Z,1.52
2022-09-10T14:06:26.415Z,1.25
2022-09-10T14:09:03.247Z,1.75
2022-09-10T14:11:36.955Z,1.15
2022-09-10T14:14:18.817Z,1.10
2022-09-10T14:16:59.624Z,1.33
2022-09-10T14:19:56.648Z,1.40
2022-09-10T14:22:27.653Z,1.65
2022-09-10T14:25:02.676Z,1.42
2022-09-10T14:27:36.063Z,1.50
2022-09-10T14:30:28.192Z,1.40
2022-09-10T14:33:33.234Z,1.27
2022-09-10T14:36:35.610Z,1.10
2022-09-10T14:39:18.567Z,1.23
2022-09-10T14:41:50.304Z,0.60
2022-09-10T14:44:26.931Z,1.13
2022-09-10T14:47:14.001Z,1.15
2022-09-10T14:49:48.186Z,1.05
2022-09-10T14:52:19.095Z,1.52
2022-09-10T14:54:49.970Z,1.05
2022-09-10T14:57:20.905Z,1.17
2022-09-10T14:59:55.287Z,1.10
2022-09-10T15:02:30.150Z,1.10
2022-09-10T15:05:00.635Z,0.60
2022-09-10T15:07:31.235Z,0.93
2022-09-10T15:10:02.962Z,1.17
2022-09-10T15:12:34.406Z,1.20
2022-09-10T15:15:05.915Z,1.70
2022-09-10T15:17:36.894Z,0.73
2022-09-10T15:20:07.498Z,0.57
2022-09-10T15:22:37.448Z,1.25
2022-09-10T15:25:10.885Z,0.90
2022-09-10T15:27:42.995Z,1.65
2022-09-10T15:30:13.287Z,1.33
2022-09-10T15:32:44.036Z,1.23
2022-09-10T15:35:14.388Z,1.30
2022-09-10T15:37:44.574Z,1.20
2022-09-10T15:40:14.564Z,0.98
2022-09-10T15:42:44.544Z,1.17
2022-09-10T15:45:14.466Z,0.88
2022-09-10T15:47:44.460Z,1.00
2022-09-10T15:50:17.054Z,1.50
2022-09-10T15:52:47.646Z,1.38
2022-09-10T15:55:17.953Z,1.08
2022-09-10T15:57:51.347Z,0.93
2022-09-10T16:00:22.258Z,0.73
2022-09-10T16:02:55.049Z,0.88
2022-09-10T16:05:25.144Z,0.52
2022-09-10T16:07:55.021Z,0.70
2022-09-10T16:10:25.724Z,0.73
2022-09-10T16:12:56.058Z,0.50
2022-09-10T16:15:26.186Z,0.90
2022-09-10T16:17:55.991Z,0.68
2022-09-10T16:20:25.944Z,0.60
2022-09-10T16:22:55.860Z,1.00
2022-09-10T16:25:26.060Z,0.77
2022-09-10T16:27:55.908Z,0.60
2022-09-10T16:30:26.785Z,0.50
2022-09-10T16:32:56.795Z,0.80
2022-09-10T16:35:27.637Z,0.50
2022-09-10T16:37:58.283Z,0.70
2022-09-10T16:40:28.671Z,0.60
2022-09-10T16:42:58.609Z,0.85
2022-09-10T16:45:28.537Z,0.45
2022-09-10T16:48:04.132Z,0.35
2022-09-10T16:50:35.013Z,0.50
2022-09-10T16:53:08.974Z,0.52
2022-09-10T16:55:41.844Z,0.50
2022-09-10T16:58:12.116Z,0.90
2022-09-10T17:00:44.804Z,0.70
2022-09-10T17:03:16.489Z,0.70
2022-09-10T17:05:48.084Z,0.68
2022-09-10T17:08:18.233Z,0.98
2022-09-10T17:10:48.638Z,0.50
2022-09-10T17:13:19.013Z,0.30
2022-09-10T17:15:50.989Z,0.43
2022-09-10T17:18:21.133Z,0.50
2022-09-10T17:20:54.106Z,0.50
2022-09-10T17:23:24.605Z,0.40
2022-09-10T17:25:54.923Z,0.68
2022-09-10T17:28:24.829Z,0.50
2022-09-10T17:30:57.768Z,0.40
2022-09-10T17:33:29.449Z,0.40
2022-09-10T17:36:02.676Z,0.50
2022-09-10T17:38:35.328Z,0.38
2022-09-10T17:41:06.354Z,0.35
2022-09-10T17:43:39.066Z,0.40
2022-09-10T17:46:12.771Z,0.60
2022-09-10T17:48:46.999Z,0.57
2022-09-10T17:51:20.938Z,0.55
2022-09-10T17:53:52.366Z,0.45
2022-09-10T17:56:24.407Z,0.30
2022-09-10T17:59:02.824Z,0.45
2022-09-10T18:01:37.383Z,0.38
2022-09-10T18:04:15.549Z,0.40
2022-09-10T18:06:50.167Z,0.50
2022-09-10T18:09:23.226Z,0.45
2022-09-10T18:11:53.707Z,0.30
2022-09-10T18:14:25.575Z,0.40
2022-09-10T18:16:57.044Z,0.40
2022-09-10T18:19:27.393Z,0.38
2022-09-10T18:21:57.364Z,2.05
2022-09-10T18:24:27.989Z,0.50
2022-09-10T18:26:59.073Z,0.40
2022-09-10T18:29:31.336Z,0.65
2022-09-10T18:32:03.018Z,0.50
2022-09-10T18:34:33.742Z,0.40
2022-09-10T18:37:05.055Z,0.68
2022-09-10T18:39:35.842Z,0.60
2022-09-10T18:42:07.461Z,0.60
2022-09-10T18:44:38.210Z,0.47
2022-09-10T18:47:28.055Z,0.57
2022-09-10T18:50:01.230Z,0.40
2022-09-10T18:52:31.579Z,2.17
2022-09-10T18:55:02.249Z,0.50
2022-09-10T18:57:33.002Z,0.43
2022-09-10T19:00:03.220Z,0.60
2022-09-10T19:02:33.163Z,0.57
2022-09-10T19:05:12.047Z,0.88
2022-09-10T19:07:43.329Z,0.60
2022-09-10T19:10:13.765Z,0.40
2022-09-10T19:12:43.793Z,0.40
2022-09-10T19:15:13.853Z,0.43
2022-09-10T19:17:44.140Z,0.77
2022-09-10T19:20:14.028Z,0.40
2022-09-10T19:22:45.716Z,0.55
2022-09-10T19:25:15.866Z,0.50
2022-09-10T19:27:46.848Z,0.70
2022-09-10T19:30:17.233Z,0.60
2022-09-10T19:32:47.635Z,0.47
2022-09-10T19:35:18.071Z,0.40
2022-09-10T19:37:49.551Z,0.55
2022-09-10T19:40:19.958Z,0.50
2022-09-10T19:42:50.680Z,0.60
2022-09-10T19:45:20.584Z,0.73
2022-09-10T19:47:50.508Z,0.65
2022-09-10T19:50:23.280Z,0.60
2022-09-10T19:52:54.939Z,0.95
2022-09-10T19:55:28.169Z,0.88
2022-09-10T19:58:00.541Z,0.52
2022-09-10T20:00:46.482Z,0.70
2022-09-10T20:03:18.199Z,1.15
2022-09-10T20:05:49.697Z,0.82
2022-09-10T20:08:19.862Z,0.90
2022-09-10T20:10:55.114Z,1.15
2022-09-10T20:13:26.230Z,1.33
2022-09-10T20:15:56.935Z,1.45
2022-09-10T20:18:31.481Z,0.88
2022-09-10T20:21:21.103Z,1.25
2022-09-10T20:23:54.607Z,0.80
2022-09-10T20:26:28.759Z,0.70
2022-09-10T20:29:05.063Z,1.05
2022-09-10T20:31:37.273Z,0.88
2022-09-10T20:34:09.278Z,0.88
2022-09-10T20:36:42.034Z,0.63
2022-09-10T20:39:14.985Z,0.70
2022-09-10T20:41:46.054Z,0.80
2022-09-10T20:44:18.609Z,0.85
2022-09-10T20:46:49.331Z,0.70
2022-09-10T20:49:19.514Z,0.70
2022-09-10T20:51:49.803Z,0.73
2022-09-10T20:54:20.573Z,0.75
2022-09-10T20:56:51.304Z,0.60
2022-09-10T20:59:25.553Z,0.80
2022-09-10T21:01:57.865Z,1.40
2022-09-10T21:04:28.257Z,1.52
2022-09-10T21:06:59.575Z,1.90
2022-09-10T21:09:30.016Z,0.82
2022-09-10T21:12:00.263Z,1.02
2022-09-10T21:14:30.172Z,1.35
2022-09-10T21:17:00.797Z,1.27
2022-09-10T21:19:31.997Z,1.10
2022-09-10T21:22:04.027Z,0.90
2022-09-10T21:24:34.189Z,0.93
2022-09-10T21:27:05.027Z,0.90
2022-09-10T21:29:35.053Z,0.90
2022-09-10T21:32:06.391Z,0.90
2022-09-10T21:34:36.934Z,1.05
2022-09-10T21:37:07.700Z,0.90
2022-09-10T21:39:37.721Z,1.13
2022-09-10T21:42:07.897Z,1.00
2022-09-10T21:44:37.918Z,1.65
2022-09-10T21:47:08.187Z,1.52
2022-09-10T21:49:38.356Z,1.55
2022-09-10T21:52:10.437Z,1.92
2022-09-10T21:54:40.570Z,1.75
2022-09-10T21:57:12.735Z,1.92
2022-09-10T21:59:43.065Z,1.17
2022-09-10T22:02:13.390Z,1.00
2022-09-10T22:04:44.224Z,1.00
2022-09-10T22:07:15.386Z,2.22
2022-09-10T22:09:46.057Z,2.70
2022-09-10T22:12:16.700Z,1.42
2022-09-10T22:14:46.642Z,1.70
2022-09-10T22:17:16.627Z,1.40
2022-09-10T22:19:46.543Z,1.67
2022-09-10T22:22:16.988Z,1.83
2022-09-10T22:24:47.381Z,1.70
2022-09-10T22:27:17.925Z,2.13
2022-09-10T22:29:48.452Z,1.70
2022-09-10T22:32:18.810Z,2.60
2022-09-10T22:34:50.192Z,1.70
2022-09-10T22:37:20.445Z,5.15
2022-09-10T22:39:50.467Z,8.27
2022-09-10T22:42:22.303Z,3.92
2022-09-10T22:44:53.212Z,9.27
2022-09-10T22:47:23.335Z,9.70
2022-09-10T22:49:53.489Z,8.88
2022-09-10T22:52:23.872Z,6.82
2022-09-10T22:54:54.650Z,22.88
2022-09-10T22:57:24.547Z,10.05
2022-09-10T22:59:55.407Z,3.38
2022-09-10T23:02:26.010Z,2.60
2022-09-10T23:04:56.553Z,2.42
2022-09-10T23:07:27.129Z,5.88
2022-09-10T23:09:57.395Z,5.78
2022-09-10T23:12:27.763Z,4.35
2022-09-10T23:14:58.396Z,3.42
2022-09-10T23:17:28.352Z,3.67
2022-09-10T23:19:58.339Z,2.53
2022-09-10T23:22:28.260Z,2.67
2022-09-10T23:24:59.490Z,2.60
2022-09-10T23:27:30.162Z,2.00
2022-09-10T23:30:00.294Z,1.60
2022-09-10T23:32:30.762Z,1.58
2022-09-10T23:35:01.675Z,1.67
2022-09-10T23:37:31.824Z,1.80
2022-09-10T23:40:01.930Z,1.23
2022-09-10T23:42:32.445Z,1.20
2022-09-10T23:45:03.289Z,1.77
2022-09-10T23:47:33.805Z,1.30
2022-09-10T23:50:04.346Z,1.20
2022-09-10T23:52:34.332Z,1.30
2022-09-10T23:55:04.194Z,1.00
2022-09-10T23:57:35.214Z,1.15
